Tuesday, August 30, 2016
05:00 UTC
  |  Log In   |  Register Free
Airport Search:

New River Valley Airport
(KPSK)

New River Valley Airport Diagram
No Airport Diagram Available

FAA data valid effective Jul 21 2016 - Sep 15 2016 (unless otherwise noted).

 
 
 
 
 
 
 
 
 
 
 
 
 
 
Current Aviation Weather for KPSK

Weather Summary


The most recent METAR observation for PSK was updated at: 12:55 UTC
METAR for PSK is not available. Closest METAR is for
METAR

METAR KPSK 300435Z 00000KT 10SM CLR 21/19 A3023 RMK AO2 T02080191

METAR KPSK 300415Z 00000KT 10SM CLR 21/19 A3024 RMK AO2 T02120193

METAR KPSK 300355Z 00000KT 10SM CLR 21/19 A3024 RMK AO2 T02100192

METAR KPSK 300335Z 00000KT 10SM CLR 21/19 A3024 RMK AO2 T02140193

METAR KPSK 300315Z 00000KT 10SM CLR 22/19 A3024 RMK AO2 T02150193

METAR KPSK 300255Z 00000KT 10SM CLR 22/19 A3024 RMK AO2 T02180194

METAR KPSK 300235Z 00000KT 10SM CLR 22/19 A3024 RMK AO2 T02180192

METAR KPSK 300215Z 00000KT 10SM CLR 23/19 A3024 RMK AO2 T02250193

METAR KBCB 300435Z 00000KT 10SM CLR 20/19 A3025 RMK AO2 T02000194 TSNO

METAR KBLF 300452Z 00000KT 10SM CLR 20/17 A3026 RMK AO2 SLP206 T02000172 402830178

METAR KHLX 300435Z 00000KT 10SM CLR 22/19 A3024 RMK AO2 T02200191

TAF for PSK is not available.
TAF

KBCB - TAF KBCB 292335Z 3000/3024 10003KT P6SM SCT080

KBCB - FM300800 00000KT 2SM BR SCT040

KBCB - FM301300 09003KT P6SM SCT035 =

KBLF - TAF KBLF 292335Z 3000/3024 06003KT P6SM SCT080

KBLF - FM300200 09003KT P6SM BKN040

KBLF - FM301500 12004KT P6SM SCT100 =

GlobalAir.com is loading additional information.
 Current Weather at PSK
70.0 F° (21.0 C°)

North winds at 0.0 mph
Pressure:
30.24 in
Humidity:
90%
Wind:
North at 0.0 mph
Dew Point:
66.6 F° (19.2 C°)
Visibility:
10.00 mi
PSK NOAA Radar




Find All Airport Services Find A Hotel Find A Rental Car Find A Golf Course Find A Restaurant $100 Hamburger



Airport Weather Forecast for KPSK

Translated METAR for KPSK (0435 UTC)
METAR:
KPSK 300435Z AUTO New River Valley, Dublin, VA (KPSK). Aug 30, 0435Z, Automated. Wind is Calm, 10 statute miles visibility, Clear Skies, Temperature 21°C, Dewpoint 19°C, Altimeter is 30.23. Remarks: automated station with precipitation discriminator hourly temp 20.8°C dewpoint 19.1°C
Conditions at:
KPSK (New River Valley, VA) observed 0435 UTC 30 August 2016
Temperature:
70.0 F° (21.0 C°)
Dewpoint:
not reported - refer to area weather report
Pressure:
30.24 Hg
Winds:
Calm
Visibility:
10.00
Ceiling:
at least 12,000 feet AGL
Clouds:
not reported - refer to area weather report
Remarks:
site is un-manned

Translated TAF for TAF for PSK is not available. Refer to local area forecast.
FBO's on the Field
FBO Company Facility Photos Services Transportation Aviation Fuel Prices: Prices include tax
Catering Weather Repair Courtesy Rental Type 100LL JetA JetA+ MOGAS 8087
 
New River Valley Airport

This FBO has not yet been rated
FS:Avfuel
Last Updated: Aug-29
Login to update fuel prices
SS:
Contact New River Valley AirportMore FBO Information
 
Add another FBO Facility Photos Catering Weather Repair Courtesy Rental Type 100LL JetA JetA+ MOGAS 8087
Services Transportation Aviation Fuel Prices: Prices include tax


model-print
model-print
model-print
model-print